Time;durP1;ratioP1;P1;durP2;ratioP2;P2;SDS_P1;SDS_P2;PMS_P1;PMS_P2;Temp;Humidity;BMP_temperature;BMP_pressure;BME280_temperature;BME280_humidity;BME280_pressure;Samples;Min_cycle;Max_cycle;Signal;HPM_P1;HPM_P2
2023/02/25 00:00:18;;;;;;;;;;;5.10;99.90;;;;;;4994182;28;19922;-83
2023/02/25 00:02:44;;;;;;;;;;;5.20;99.90;;;;;;4992063;28;20112;-80
2023/02/25 00:05:11;;;;;;;;;;;5.10;1.00;;;;;;4995132;28;19921;-81
2023/02/25 00:07:37;;;;;;;;;;;5.10;1.00;;;;;;5001051;28;19917;-80
2023/02/25 00:10:03;;;;;;;;;;;5.10;1.00;;;;;;4997824;28;20711;-80
2023/02/25 00:12:29;;;;;;;;;;;5.00;1.00;;;;;;4997101;28;19925;-81
2023/02/25 00:14:55;;;;;;;;;;;4.90;1.00;;;;;;4980674;28;20294;-81
2023/02/25 00:17:21;;;;;;;;;;;4.90;1.00;;;;;;4996026;28;19960;-81
2023/02/25 00:19:47;;;;;;;;;;;4.80;1.00;;;;;;4997678;28;19944;-81
2023/02/25 00:22:13;;;;;;;;;;;4.80;1.00;;;;;;4993822;28;19914;-80
2023/02/25 00:24:39;;;;;;;;;;;4.90;1.00;;;;;;4996067;28;20370;-81
2023/02/25 00:27:05;;;;;;;;;;;4.90;1.00;;;;;;4994901;28;19936;-81
2023/02/25 00:29:31;;;;;;;;;;;5.00;1.00;;;;;;4993504;28;19917;-80
2023/02/25 00:31:57;;;;;;;;;;;4.90;1.00;;;;;;4994495;28;20005;-80
2023/02/25 00:34:23;;;;;;;;;;;4.90;1.00;;;;;;4990528;28;19920;-80
2023/02/25 00:36:49;;;;;;;;;;;4.80;1.00;;;;;;4979053;28;19918;-80
2023/02/25 00:39:15;;;;;;;;;;;4.80;1.00;;;;;;4995399;28;19910;-80
2023/02/25 00:41:41;;;;;;;;;;;4.70;1.00;;;;;;4985369;28;20009;-80
2023/02/25 00:44:07;;;;;;;;;;;4.70;1.00;;;;;;4993212;28;19918;-78
2023/02/25 00:46:34;;;;;;;;;;;4.60;1.00;;;;;;4997095;28;20036;-81
2023/02/25 00:49:00;;;;;;;;;;;4.50;1.00;;;;;;4994340;28;19918;-81
2023/02/25 00:51:28;;;;;;;;;;;4.40;1.00;;;;;;4994073;28;19918;-79
2023/02/25 00:53:55;;;;;;;;;;;4.30;1.00;;;;;;4999051;28;19913;-80
2023/02/25 00:56:21;;;;;;;;;;;4.30;1.00;;;;;;4994633;28;19914;-75
2023/02/25 00:58:48;;;;;;;;;;;4.20;1.00;;;;;;4992177;28;20174;-78
2023/02/25 01:01:24;;;;;;;;;;;4.20;1.00;;;;;;4993599;28;19932;-78
2023/02/25 01:03:52;;;;;;;;;;;4.20;1.00;;;;;;4990551;28;19925;-78
2023/02/25 01:06:18;;;;;;;;;;;4.10;1.00;;;;;;4993967;28;19918;-78
2023/02/25 01:08:44;;;;;;;;;;;4.00;1.00;;;;;;4995035;28;19925;-78
2023/02/25 01:11:19;;;;;;;;;;;3.80;1.00;;;;;;4995331;28;19918;-78
2023/02/25 01:13:46;;;;;;;;;;;3.70;1.00;;;;;;4992293;28;20438;-79
2023/02/25 01:16:14;;;;;;;;;;;3.80;1.00;;;;;;4994060;28;19936;-80
2023/02/25 01:18:40;;;;;;;;;;;3.80;1.00;;;;;;4992037;28;19914;-80
2023/02/25 01:21:06;;;;;;;;;;;3.80;1.00;;;;;;4985971;28;19917;-79
2023/02/25 01:23:32;;;;;;;;;;;3.80;1.00;;;;;;4992006;28;19917;-79
2023/02/25 01:26:02;;;;;;;;;;;3.90;1.00;;;;;;4979814;28;19924;-80
2023/02/25 01:28:28;;;;;;;;;;;3.90;1.00;;;;;;4993028;28;19918;-79
2023/02/25 01:30:54;;;;;;;;;;;3.80;1.00;;;;;;4992581;28;19925;-79
2023/02/25 01:33:20;;;;;;;;;;;3.80;1.00;;;;;;4992732;28;20008;-78
2023/02/25 01:35:46;;;;;;;;;;;3.70;1.00;;;;;;4991813;28;19916;-79
2023/02/25 01:38:13;;;;;;;;;;;3.70;1.00;;;;;;4979666;28;19914;-79
2023/02/25 01:40:39;;;;;;;;;;;3.60;1.00;;;;;;4992913;28;20383;-80
2023/02/25 01:43:06;;;;;;;;;;;3.50;1.00;;;;;;4992113;28;19914;-79
2023/02/25 01:45:33;;;;;;;;;;;3.50;1.00;;;;;;4991289;28;19917;-78
2023/02/25 01:48:02;;;;;;;;;;;3.50;1.00;;;;;;4992726;28;19913;-79
2023/02/25 01:50:31;;;;;;;;;;;3.50;1.00;;;;;;4996337;28;20259;-79
2023/02/25 01:52:59;;;;;;;;;;;3.40;1.00;;;;;;4997111;28;19917;-79
2023/02/25 01:55:25;;;;;;;;;;;3.50;1.00;;;;;;4984064;28;19914;-79
2023/02/25 01:57:51;;;;;;;;;;;3.50;1.00;;;;;;4984537;28;20029;-79
2023/02/25 02:00:17;;;;;;;;;;;3.60;1.00;;;;;;4978667;28;19990;-79
2023/02/25 02:02:44;;;;;;;;;;;3.60;1.00;;;;;;4999988;28;19930;-78
2023/02/25 02:05:11;;;;;;;;;;;3.70;1.00;;;;;;4978754;28;20371;-79
2023/02/25 02:07:37;;;;;;;;;;;3.70;1.00;;;;;;4992959;28;19920;-79
2023/02/25 02:10:03;;;;;;;;;;;3.80;1.00;;;;;;4992692;28;19917;-79
2023/02/25 02:12:48;;;;;;;;;;;3.80;1.00;;;;;;4993005;28;20299;-79
2023/02/25 02:15:14;;;;;;;;;;;3.80;1.00;;;;;;4991705;28;19918;-77
2023/02/25 02:18:00;;;;;;;;;;;3.90;1.00;;;;;;4991644;28;19925;-78
2023/02/25 02:20:29;;;;;;;;;;;3.90;1.00;;;;;;4981503;28;19914;-78
2023/02/25 02:23:20;;;;;;;;;;;4.00;1.00;;;;;;4996974;28;19914;-78
2023/02/25 02:25:56;;;;;;;;;;;4.00;1.00;;;;;;4994480;28;19921;-78
2023/02/25 02:28:44;;;;;;;;;;;4.00;1.00;;;;;;4992897;28;20379;-78
2023/02/25 02:31:30;;;;;;;;;;;4.00;1.00;;;;;;4983508;28;19994;-78
2023/02/25 02:34:15;;;;;;;;;;;4.00;1.00;;;;;;4996065;28;19918;-78
2023/02/25 02:36:41;;;;;;;;;;;4.00;1.00;;;;;;4990410;28;19914;-78
2023/02/25 02:39:14;;;;;;;;;;;4.00;1.00;;;;;;4977388;28;19913;-79
2023/02/25 02:41:45;;;;;;;;;;;4.00;1.00;;;;;;4977079;28;19921;-79
2023/02/25 02:44:11;;;;;;;;;;;3.90;1.00;;;;;;4978882;28;19914;-79
2023/02/25 02:46:46;;;;;;;;;;;3.90;1.00;;;;;;4977278;28;19914;-79
2023/02/25 02:49:19;;;;;;;;;;;3.80;1.00;;;;;;4998677;28;19924;-80
2023/02/25 02:52:05;;;;;;;;;;;3.80;1.00;;;;;;4995879;28;19918;-81
2023/02/25 02:54:34;;;;;;;;;;;3.70;1.00;;;;;;5000010;28;20271;-80
2023/02/25 02:57:01;;;;;;;;;;;3.70;1.00;;;;;;4982511;28;19914;-80
2023/02/25 02:59:33;;;;;;;;;;;3.60;1.00;;;;;;4996448;28;19929;-81
2023/02/25 03:02:11;;;;;;;;;;;3.70;1.00;;;;;;4980170;28;19925;-81
2023/02/25 03:04:37;;;;;;;;;;;3.70;1.00;;;;;;4995475;28;19921;-80
2023/02/25 03:07:07;;;;;;;;;;;3.70;1.00;;;;;;4996700;28;19914;-80
2023/02/25 03:09:39;;;;;;;;;;;3.70;1.00;;;;;;4996997;28;20360;-81
2023/02/25 03:12:06;;;;;;;;;;;3.70;1.00;;;;;;5003327;28;20385;-81
2023/02/25 03:14:35;;;;;;;;;;;3.70;1.00;;;;;;4982068;28;19913;-80
2023/02/25 03:17:08;;;;;;;;;;;3.70;1.00;;;;;;4999768;28;19936;-80
2023/02/25 03:19:37;;;;;;;;;;;3.60;1.00;;;;;;4971059;28;19913;-79
2023/02/25 03:22:09;;;;;;;;;;;3.60;1.00;;;;;;4999053;28;19913;-80
2023/02/25 03:24:40;;;;;;;;;;;3.70;1.00;;;;;;4994576;28;19921;-79
2023/02/25 03:27:38;;;;;;;;;;;3.80;99.90;;;;;;4981609;28;19914;-79
2023/02/25 03:30:32;;;;;;;;;;;3.90;99.90;;;;;;4942735;28;19926;-80
2023/02/25 03:32:59;;;;;;;;;;;4.00;99.90;;;;;;4964063;28;19934;-79
2023/02/25 03:35:26;;;;;;;;;;;4.10;99.90;;;;;;4984404;28;19921;-79
2023/02/25 03:37:54;;;;;;;;;;;4.10;99.90;;;;;;4994972;28;19929;-80
2023/02/25 03:40:21;;;;;;;;;;;4.20;99.90;;;;;;4980101;28;19914;-78
2023/02/25 03:42:53;;;;;;;;;;;4.30;99.90;;;;;;4996938;28;19914;-78
2023/02/25 03:45:20;;;;;;;;;;;4.30;99.90;;;;;;4992749;28;19913;-79
2023/02/25 03:47:46;;;;;;;;;;;4.30;99.90;;;;;;4994994;28;19921;-80
2023/02/25 03:50:14;;;;;;;;;;;4.30;99.90;;;;;;4979964;28;19941;-79
2023/02/25 03:52:43;;;;;;;;;;;4.40;99.90;;;;;;4979663;28;19925;-79
2023/02/25 03:55:23;;;;;;;;;;;4.40;99.90;;;;;;4992141;28;19909;-80
2023/02/25 03:57:50;;;;;;;;;;;4.50;99.90;;;;;;4994368;28;19925;-80
2023/02/25 04:00:17;;;;;;;;;;;4.40;99.90;;;;;;4991749;28;19929;-80
2023/02/25 04:02:45;;;;;;;;;;;4.40;99.90;;;;;;4994772;28;19925;-80
2023/02/25 04:05:11;;;;;;;;;;;4.40;99.90;;;;;;4994911;28;19914;-80
2023/02/25 04:07:38;;;;;;;;;;;4.40;99.90;;;;;;4979767;28;19917;-80
2023/02/25 04:10:05;;;;;;;;;;;4.40;99.90;;;;;;4993248;28;19913;-81
2023/02/25 04:12:34;;;;;;;;;;;4.40;99.90;;;;;;4984514;28;19925;-78
2023/02/25 04:15:00;;;;;;;;;;;4.40;99.90;;;;;;4994974;28;20009;-77
2023/02/25 04:17:27;;;;;;;;;;;4.50;99.90;;;;;;4992842;28;19916;-77
2023/02/25 04:19:53;;;;;;;;;;;4.60;99.90;;;;;;5002049;28;19953;-81
2023/02/25 04:22:20;;;;;;;;;;;4.60;99.90;;;;;;4975217;28;19914;-81
2023/02/25 04:24:46;;;;;;;;;;;4.60;99.90;;;;;;4993919;28;19940;-79
2023/02/25 04:27:14;;;;;;;;;;;4.70;99.90;;;;;;4994720;28;20274;-79
2023/02/25 04:29:40;;;;;;;;;;;4.70;99.90;;;;;;4992217;28;19918;-79
2023/02/25 04:32:06;;;;;;;;;;;4.70;99.90;;;;;;4994471;28;19917;-80
2023/02/25 04:34:32;;;;;;;;;;;4.70;99.90;;;;;;4994263;28;19913;-77
2023/02/25 04:37:01;;;;;;;;;;;4.60;99.90;;;;;;4996819;28;19961;-77
2023/02/25 04:39:27;;;;;;;;;;;4.60;99.90;;;;;;4994528;28;20358;-78
2023/02/25 04:41:53;;;;;;;;;;;4.60;99.90;;;;;;4993930;28;19996;-76
2023/02/25 04:44:19;;;;;;;;;;;4.60;99.90;;;;;;4985082;28;19917;-77
2023/02/25 04:46:50;;;;;;;;;;;4.60;99.90;;;;;;4994697;28;20283;-78
2023/02/25 04:49:18;;;;;;;;;;;4.60;99.90;;;;;;4995731;28;19928;-76
2023/02/25 04:51:44;;;;;;;;;;;4.60;99.90;;;;;;4994194;28;19913;-79
2023/02/25 04:54:10;;;;;;;;;;;4.60;99.90;;;;;;4997746;28;19914;-77
2023/02/25 04:56:37;;;;;;;;;;;4.60;99.90;;;;;;4995783;28;20244;-80
2023/02/25 04:59:04;;;;;;;;;;;4.60;99.90;;;;;;4994482;28;19929;-81
2023/02/25 05:01:31;;;;;;;;;;;4.70;99.90;;;;;;5000542;28;19928;-78
2023/02/25 05:03:59;;;;;;;;;;;4.60;99.90;;;;;;4993446;28;20147;-78
2023/02/25 05:06:26;;;;;;;;;;;4.60;99.90;;;;;;4993707;28;19914;-76
2023/02/25 05:08:52;;;;;;;;;;;4.60;99.90;;;;;;4991186;28;20299;-81
2023/02/25 05:11:18;;;;;;;;;;;4.60;99.90;;;;;;4993635;28;19922;-81
2023/02/25 05:13:44;;;;;;;;;;;4.60;99.90;;;;;;4993024;28;19914;-79
2023/02/25 05:16:11;;;;;;;;;;;4.60;99.90;;;;;;4997218;28;20389;-80
2023/02/25 05:18:38;;;;;;;;;;;4.60;99.90;;;;;;4991405;28;19972;-81
2023/02/25 05:21:08;;;;;;;;;;;4.60;99.90;;;;;;4991835;28;19917;-81
2023/02/25 05:23:34;;;;;;;;;;;4.50;99.90;;;;;;4993791;28;19921;-80
2023/02/25 05:26:00;;;;;;;;;;;4.60;99.90;;;;;;4993132;28;20259;-80
2023/02/25 05:28:26;;;;;;;;;;;4.50;99.90;;;;;;4997237;28;19914;-80
2023/02/25 05:30:54;;;;;;;;;;;4.50;99.90;;;;;;4992574;28;20013;-79
2023/02/25 05:33:20;;;;;;;;;;;4.60;99.90;;;;;;4996269;28;19925;-77
2023/02/25 05:35:46;;;;;;;;;;;4.60;99.90;;;;;;4996230;28;19914;-80
2023/02/25 05:38:12;;;;;;;;;;;4.60;99.90;;;;;;4993294;28;19968;-80
2023/02/25 05:40:38;;;;;;;;;;;4.50;99.90;;;;;;4992894;28;19918;-76
2023/02/25 05:43:04;;;;;;;;;;;4.60;99.90;;;;;;4993524;28;19914;-80
2023/02/25 05:45:30;;;;;;;;;;;4.60;99.90;;;;;;4986896;28;19910;-80
2023/02/25 05:47:56;;;;;;;;;;;4.60;99.90;;;;;;4993291;28;19984;-74
2023/02/25 05:50:22;;;;;;;;;;;4.70;99.90;;;;;;4996947;28;19918;-76
2023/02/25 05:52:48;;;;;;;;;;;4.70;99.90;;;;;;4977961;28;19921;-76
2023/02/25 05:55:15;;;;;;;;;;;4.60;99.90;;;;;;4992157;28;20336;-80
2023/02/25 05:57:41;;;;;;;;;;;4.70;99.90;;;;;;4992383;28;19925;-80
2023/02/25 06:00:13;;;;;;;;;;;4.60;99.90;;;;;;4986222;28;19914;-81
2023/02/25 06:02:43;;;;;;;;;;;4.60;99.90;;;;;;4976551;28;20001;-80
2023/02/25 06:05:09;;;;;;;;;;;4.60;99.90;;;;;;4991589;28;20294;-77
2023/02/25 06:07:35;;;;;;;;;;;4.60;99.90;;;;;;4993176;28;19914;-80
2023/02/25 06:10:00;;;;;;;;;;;4.50;99.90;;;;;;4992068;28;19960;-81
2023/02/25 06:12:27;;;;;;;;;;;4.50;99.90;;;;;;4993229;28;19945;-80
2023/02/25 06:14:54;;;;;;;;;;;4.50;99.90;;;;;;4978313;28;20279;-81
2023/02/25 06:17:19;;;;;;;;;;;4.60;99.90;;;;;;4994090;28;20384;-79
2023/02/25 06:19:45;;;;;;;;;;;4.50;99.90;;;;;;4996533;28;20001;-80
2023/02/25 06:22:12;;;;;;;;;;;4.50;99.90;;;;;;4995460;28;19914;-77
2023/02/25 06:24:39;;;;;;;;;;;4.40;99.90;;;;;;4997110;28;19921;-80
2023/02/25 06:27:05;;;;;;;;;;;4.50;99.90;;;;;;4996917;28;19913;-78
2023/02/25 06:29:31;;;;;;;;;;;4.50;99.90;;;;;;4996167;28;20002;-81
2023/02/25 06:31:57;;;;;;;;;;;4.50;99.90;;;;;;4995644;28;19918;-80
2023/02/25 06:34:23;;;;;;;;;;;4.50;99.90;;;;;;4996599;28;19914;-81
2023/02/25 06:36:49;;;;;;;;;;;4.50;99.90;;;;;;4996162;28;19914;-81
2023/02/25 06:39:15;;;;;;;;;;;4.50;99.90;;;;;;4996776;28;19976;-80
2023/02/25 06:41:41;;;;;;;;;;;4.50;99.90;;;;;;4980237;28;19964;-82
2023/02/25 06:44:07;;;;;;;;;;;4.60;99.90;;;;;;4996029;28;19917;-81
2023/02/25 06:46:33;;;;;;;;;;;4.60;99.90;;;;;;4996512;28;20316;-79
2023/02/25 06:48:59;;;;;;;;;;;4.60;99.90;;;;;;4995902;28;19945;-80
2023/02/25 06:51:25;;;;;;;;;;;4.60;99.90;;;;;;4995008;28;20012;-80
2023/02/25 06:53:51;;;;;;;;;;;4.60;99.90;;;;;;4999714;28;20367;-77
2023/02/25 06:56:19;;;;;;;;;;;4.60;99.90;;;;;;4998435;28;19918;-81
2023/02/25 06:58:45;;;;;;;;;;;4.60;99.90;;;;;;4989136;28;19920;-78
2023/02/25 07:01:12;;;;;;;;;;;4.70;99.90;;;;;;4998143;28;20009;-81
2023/02/25 07:03:39;;;;;;;;;;;4.70;99.90;;;;;;4996839;28;19922;-80
2023/02/25 07:06:05;;;;;;;;;;;4.70;99.90;;;;;;4996382;28;20339;-81
2023/02/25 07:08:31;;;;;;;;;;;4.70;99.90;;;;;;5000073;28;20363;-81
2023/02/25 07:11:10;;;;;;;;;;;4.70;99.90;;;;;;4992826;28;19921;-81
2023/02/25 07:13:36;;;;;;;;;;;4.70;99.90;;;;;;4994492;28;19918;-82
2023/02/25 07:16:02;;;;;;;;;;;4.80;99.90;;;;;;4989493;28;19918;-80
2023/02/25 07:18:28;;;;;;;;;;;4.80;99.90;;;;;;4989904;28;20405;-77
2023/02/25 07:20:56;;;;;;;;;;;4.80;99.90;;;;;;4996163;28;20007;-77
2023/02/25 07:23:21;;;;;;;;;;;4.80;99.90;;;;;;4992394;28;19913;-78
2023/02/25 07:25:48;;;;;;;;;;;4.90;99.90;;;;;;4995968;28;20429;-80
2023/02/25 07:28:15;;;;;;;;;;;4.90;99.90;;;;;;4996027;28;19921;-79
2023/02/25 07:30:41;;;;;;;;;;;4.90;99.90;;;;;;5000446;28;19929;-80
2023/02/25 07:33:07;;;;;;;;;;;4.90;99.90;;;;;;4995073;28;20375;-81
2023/02/25 07:35:33;;;;;;;;;;;5.00;99.90;;;;;;4986242;28;19914;-81
2023/02/25 07:37:59;;;;;;;;;;;5.00;99.90;;;;;;4996311;28;19956;-80
2023/02/25 07:40:25;;;;;;;;;;;5.00;99.90;;;;;;4999271;28;19965;-79
2023/02/25 07:42:51;;;;;;;;;;;5.00;99.90;;;;;;4998029;28;19910;-80
2023/02/25 07:45:20;;;;;;;;;;;5.10;99.90;;;;;;4984593;28;19921;-81
2023/02/25 07:47:46;;;;;;;;;;;5.10;99.90;;;;;;4998966;28;19957;-80
2023/02/25 07:50:12;;;;;;;;;;;5.10;99.90;;;;;;4995520;28;20008;-81
2023/02/25 07:52:38;;;;;;;;;;;5.10;99.90;;;;;;4993871;28;19968;-80
2023/02/25 07:55:04;;;;;;;;;;;5.10;99.90;;;;;;4994860;28;19937;-81
2023/02/25 07:57:31;;;;;;;;;;;5.10;99.90;;;;;;4995179;28;20354;-81
2023/02/25 07:59:57;;;;;;;;;;;5.20;99.90;;;;;;4994305;28;19914;-81
2023/02/25 08:02:23;;;;;;;;;;;5.10;99.90;;;;;;4993975;28;19922;-81
2023/02/25 08:04:49;;;;;;;;;;;5.10;99.90;;;;;;4995734;28;19914;-81
2023/02/25 08:07:16;;;;;;;;;;;5.20;99.90;;;;;;4994532;28;19921;-81
2023/02/25 08:09:42;;;;;;;;;;;5.20;99.90;;;;;;4995420;28;20271;-81
2023/02/25 08:12:10;;;;;;;;;;;5.10;99.90;;;;;;4991904;28;19997;-81
2023/02/25 08:14:36;;;;;;;;;;;5.10;99.90;;;;;;4994743;28;20426;-82
2023/02/25 08:17:02;;;;;;;;;;;5.10;99.90;;;;;;4990643;28;20020;-81
2023/02/25 08:19:28;;;;;;;;;;;5.10;99.90;;;;;;4996840;28;20398;-81
2023/02/25 08:21:54;;;;;;;;;;;5.10;99.90;;;;;;4992837;28;20418;-79
2023/02/25 08:24:21;;;;;;;;;;;5.10;99.90;;;;;;4991216;28;19995;-78
2023/02/25 08:26:47;;;;;;;;;;;5.10;99.90;;;;;;4993696;28;19913;-79
2023/02/25 08:29:13;;;;;;;;;;;5.20;99.90;;;;;;4994834;28;19914;-78
2023/02/25 08:31:39;;;;;;;;;;;5.20;99.90;;;;;;4993294;28;19917;-80
2023/02/25 08:34:06;;;;;;;;;;;5.20;99.90;;;;;;4993692;28;19962;-81
2023/02/25 08:36:32;;;;;;;;;;;5.20;99.90;;;;;;4994607;28;19914;-76
2023/02/25 08:38:58;;;;;;;;;;;5.20;99.90;;;;;;4967633;28;19913;-76
2023/02/25 08:41:25;;;;;;;;;;;5.20;99.90;;;;;;4993548;28;19914;-75
2023/02/25 08:43:53;;;;;;;;;;;5.30;99.90;;;;;;4993586;28;19940;-76
2023/02/25 08:46:23;;;;;;;;;;;5.30;99.90;;;;;;4979825;28;19914;-79
2023/02/25 08:48:50;;;;;;;;;;;5.30;99.90;;;;;;4995959;28;20355;-80
2023/02/25 08:51:16;;;;;;;;;;;5.40;99.90;;;;;;4994384;28;19914;-78
2023/02/25 08:53:42;;;;;;;;;;;5.40;99.90;;;;;;4996621;28;19925;-79
2023/02/25 08:56:10;;;;;;;;;;;5.50;99.90;;;;;;4993719;28;20370;-76
2023/02/25 08:58:36;;;;;;;;;;;5.50;99.90;;;;;;4997454;28;19921;-81
2023/02/25 09:01:07;;;;;;;;;;;5.50;99.90;;;;;;4999079;28;19958;-79
2023/02/25 09:03:34;;;;;;;;;;;5.40;99.90;;;;;;4979738;28;19918;-82
2023/02/25 09:06:00;;;;;;;;;;;5.50;99.90;;;;;;4982320;28;20374;-81
2023/02/25 09:08:27;;;;;;;;;;;5.60;99.90;;;;;;4994692;28;19914;-81
2023/02/25 09:10:53;;;;;;;;;;;5.70;99.90;;;;;;4996710;28;19924;-80
2023/02/25 09:13:19;;;;;;;;;;;5.70;99.90;;;;;;4992480;28;19918;-82
2023/02/25 09:15:45;;;;;;;;;;;5.70;99.90;;;;;;4987260;28;20020;-83
2023/02/25 09:18:11;;;;;;;;;;;5.80;99.90;;;;;;4994883;28;19918;-82
2023/02/25 09:20:37;;;;;;;;;;;5.90;99.90;;;;;;4993804;28;19957;-81
2023/02/25 09:23:03;;;;;;;;;;;6.00;99.90;;;;;;4991376;28;19913;-81
2023/02/25 09:25:29;;;;;;;;;;;6.10;99.90;;;;;;4994967;28;19956;-80
2023/02/25 09:27:55;;;;;;;;;;;6.20;99.90;;;;;;4975186;28;19913;-79
2023/02/25 09:30:21;;;;;;;;;;;6.10;99.90;;;;;;4993689;28;19921;-80
2023/02/25 09:32:47;;;;;;;;;;;6.00;99.90;;;;;;4977794;28;19918;-80
2023/02/25 09:35:14;;;;;;;;;;;6.00;99.90;;;;;;4977801;28;19914;-79
2023/02/25 09:37:40;;;;;;;;;;;5.80;99.90;;;;;;4993285;28;19918;-78
2023/02/25 09:40:08;;;;;;;;;;;5.80;99.90;;;;;;4993765;28;20339;-77
2023/02/25 09:42:43;;;;;;;;;;;5.70;99.90;;;;;;4991379;28;19968;-81
2023/02/25 09:45:14;;;;;;;;;;;5.80;99.90;;;;;;4999540;28;19917;-79
2023/02/25 09:47:53;;;;;;;;;;;6.00;99.90;;;;;;4992514;28;19914;-75
2023/02/25 09:50:20;;;;;;;;;;;6.00;99.90;;;;;;4996557;28;19933;-78
2023/02/25 09:53:06;;;;;;;;;;;6.20;99.90;;;;;;4987023;28;19917;-80
2023/02/25 09:55:37;;;;;;;;;;;6.20;99.90;;;;;;4997086;28;19918;-79
2023/02/25 09:58:09;;;;;;;;;;;6.30;99.90;;;;;;4992196;28;20397;-77
2023/02/25 10:00:45;;;;;;;;;;;6.20;99.90;;;;;;4995641;28;19933;-78
2023/02/25 10:03:29;;;;;;;;;;;5.90;99.90;;;;;;4975487;28;19924;-79
2023/02/25 10:06:04;;;;;;;;;;;5.00;99.90;;;;;;4992421;28;19917;-77
2023/02/25 10:08:40;;;;;;;;;;;4.40;99.90;;;;;;4990098;28;19925;-77
2023/02/25 10:11:10;;;;;;;;;;;4.20;1.00;;;;;;4977738;28;21501;-76
2023/02/25 10:13:43;;;;;;;;;;;4.10;1.00;;;;;;4992696;28;19914;-76
2023/02/25 10:16:28;;;;;;;;;;;4.30;1.00;;;;;;4981817;28;20410;-76
2023/02/25 10:19:00;;;;;;;;;;;4.60;1.00;;;;;;4991283;28;19925;-76
2023/02/25 10:21:40;;;;;;;;;;;4.80;1.00;;;;;;4996360;28;19914;-76
2023/02/25 10:24:18;;;;;;;;;;;4.90;1.00;;;;;;4990943;28;19921;-76
2023/02/25 10:26:49;;;;;;;;;;;5.20;1.00;;;;;;4991563;28;19913;-75
2023/02/25 10:29:33;;;;;;;;;;;5.30;99.90;;;;;;4978024;28;19921;-77
2023/02/25 10:32:09;;;;;;;;;;;5.40;99.90;;;;;;4969012;28;19926;-75
2023/02/25 10:34:37;;;;;;;;;;;5.40;99.90;;;;;;4996339;28;19921;-76
2023/02/25 10:37:04;;;;;;;;;;;5.50;99.90;;;;;;4993822;28;19917;-75
2023/02/25 10:39:30;;;;;;;;;;;5.60;99.90;;;;;;5001406;28;19920;-76
2023/02/25 10:41:56;;;;;;;;;;;5.70;99.90;;;;;;4995785;28;19913;-76
2023/02/25 10:44:22;;;;;;;;;;;5.90;99.90;;;;;;4997308;28;20413;-75
2023/02/25 10:46:59;;;;;;;;;;;5.90;99.90;;;;;;4991433;28;19917;-75
2023/02/25 10:49:26;;;;;;;;;;;6.00;99.90;;;;;;4996255;28;19936;-76
2023/02/25 10:52:01;;;;;;;;;;;5.90;99.90;;;;;;4991614;28;19929;-77
2023/02/25 10:54:32;;;;;;;;;;;5.80;99.90;;;;;;4984506;28;19937;-76
2023/02/25 10:56:59;;;;;;;;;;;5.60;99.90;;;;;;4990677;28;19917;-76
2023/02/25 10:59:27;;;;;;;;;;;5.40;99.90;;;;;;4992640;28;19921;-78
2023/02/25 11:01:54;;;;;;;;;;;5.20;99.90;;;;;;4991803;28;19926;-77
2023/02/25 11:04:27;;;;;;;;;;;5.10;99.90;;;;;;4993934;28;19937;-76
2023/02/25 11:06:53;;;;;;;;;;;5.00;1.00;;;;;;4995689;28;19918;-76
2023/02/25 11:09:19;;;;;;;;;;;5.00;1.00;;;;;;4995629;28;19997;-76
2023/02/25 11:11:57;;;;;;;;;;;5.00;1.00;;;;;;4987351;28;19918;-78
2023/02/25 11:14:27;;;;;;;;;;;5.00;1.00;;;;;;4999390;28;20351;-77
2023/02/25 11:17:11;;;;;;;;;;;5.10;1.00;;;;;;4997181;28;19934;-76
2023/02/25 11:19:38;;;;;;;;;;;5.20;1.00;;;;;;4983252;28;19920;-77
2023/02/25 11:22:10;;;;;;;;;;;5.40;1.00;;;;;;4994974;28;19914;-76
2023/02/25 11:24:37;;;;;;;;;;;5.50;1.00;;;;;;4995755;28;19920;-76
2023/02/25 11:27:04;;;;;;;;;;;5.60;1.00;;;;;;4993655;28;19917;-76
2023/02/25 11:29:32;;;;;;;;;;;5.60;99.90;;;;;;4995358;28;19947;-76
2023/02/25 11:32:00;;;;;;;;;;;5.60;99.90;;;;;;4982711;28;19948;-75
2023/02/25 11:34:28;;;;;;;;;;;5.70;99.90;;;;;;4995296;28;19917;-74
2023/02/25 11:36:54;;;;;;;;;;;5.90;99.90;;;;;;4976748;28;19924;-74
2023/02/25 11:39:21;;;;;;;;;;;5.90;99.90;;;;;;4996178;28;20008;-75
2023/02/25 11:41:49;;;;;;;;;;;5.80;99.90;;;;;;4995177;28;19918;-75
2023/02/25 11:44:18;;;;;;;;;;;5.90;99.90;;;;;;4994401;28;19921;-75
2023/02/25 11:46:46;;;;;;;;;;;5.90;99.90;;;;;;5001115;28;20464;-76
2023/02/25 11:49:14;;;;;;;;;;;6.00;99.90;;;;;;4994520;28;19921;-76
2023/02/25 11:51:46;;;;;;;;;;;6.00;99.90;;;;;;4991274;28;19928;-76
2023/02/25 11:54:22;;;;;;;;;;;6.00;99.90;;;;;;4997154;28;19914;-76
2023/02/25 11:56:50;;;;;;;;;;;5.90;99.90;;;;;;4994876;28;19921;-77
2023/02/25 11:59:39;;;;;;;;;;;6.00;99.90;;;;;;4994456;28;19918;-76
2023/02/25 12:02:15;;;;;;;;;;;6.10;99.90;;;;;;4983914;28;19933;-75
2023/02/25 12:04:50;;;;;;;;;;;6.10;99.90;;;;;;4995048;28;19914;-77
2023/02/25 12:07:24;;;;;;;;;;;6.20;99.90;;;;;;4984246;28;19918;-77
2023/02/25 12:10:08;;;;;;;;;;;6.20;99.90;;;;;;4982866;28;21022;-75
2023/02/25 12:12:53;;;;;;;;;;;6.10;99.90;;;;;;4998225;28;19956;-75
2023/02/25 12:15:37;;;;;;;;;;;5.90;99.90;;;;;;4994156;28;19918;-75
2023/02/25 12:18:22;;;;;;;;;;;5.90;99.90;;;;;;4963539;28;19914;-76
2023/02/25 12:20:54;;;;;;;;;;;5.90;99.90;;;;;;4997789;28;20367;-76
2023/02/25 12:23:29;;;;;;;;;;;6.10;99.90;;;;;;4992610;28;20370;-76
2023/02/25 12:26:00;;;;;;;;;;;6.20;99.90;;;;;;4994491;28;19914;-75
2023/02/25 12:28:33;;;;;;;;;;;6.50;99.90;;;;;;4992893;28;19914;-76
2023/02/25 12:31:11;;;;;;;;;;;6.80;99.90;;;;;;4993919;28;19926;-76
2023/02/25 12:33:47;;;;;;;;;;;6.90;99.90;;;;;;4983788;28;19918;-76
2023/02/25 12:36:13;;;;;;;;;;;7.00;99.90;;;;;;4996031;28;19921;-77
2023/02/25 12:38:54;;;;;;;;;;;7.00;99.90;;;;;;4979991;28;19918;-76
2023/02/25 12:41:36;;;;;;;;;;;7.00;99.90;;;;;;4979794;28;19917;-77
2023/02/25 12:44:20;;;;;;;;;;;7.10;99.90;;;;;;4993229;28;20365;-76
2023/02/25 12:47:00;;;;;;;;;;;7.00;99.90;;;;;;4994601;28;19914;-81
2023/02/25 12:49:37;;;;;;;;;;;6.90;99.90;;;;;;4997543;28;20279;-74
2023/02/25 12:52:12;;;;;;;;;;;7.00;99.90;;;;;;4992894;28;19931;-80
2023/02/25 12:54:44;;;;;;;;;;;7.10;99.90;;;;;;4999995;28;19924;-77
2023/02/25 12:57:16;;;;;;;;;;;7.10;99.90;;;;;;4994803;28;19913;-77
2023/02/25 12:59:54;;;;;;;;;;;7.30;99.90;;;;;;4993864;28;19914;-79
2023/02/25 13:02:35;;;;;;;;;;;7.30;99.90;;;;;;4996898;28;19926;-77
2023/02/25 13:05:19;;;;;;;;;;;7.30;99.90;;;;;;4989060;28;19914;-78
2023/02/25 13:07:51;;;;;;;;;;;7.20;99.90;;;;;;4994237;28;20378;-79
2023/02/25 13:10:34;;;;;;;;;;;7.20;99.90;;;;;;4976160;28;19921;-78
2023/02/25 13:13:03;;;;;;;;;;;7.20;99.90;;;;;;4993018;28;19921;-79
2023/02/25 13:15:29;;;;;;;;;;;7.10;99.90;;;;;;4992356;28;19914;-77
2023/02/25 13:18:07;;;;;;;;;;;7.10;99.90;;;;;;4992148;28;19921;-77
2023/02/25 13:20:43;;;;;;;;;;;7.00;99.90;;;;;;4979792;28;19913;-78
2023/02/25 13:23:27;;;;;;;;;;;7.00;99.90;;;;;;4996448;28;20282;-76
2023/02/25 13:25:59;;;;;;;;;;;7.00;99.90;;;;;;4996724;28;19913;-77
2023/02/25 13:28:43;;;;;;;;;;;6.90;99.90;;;;;;4991967;28;19917;-76
2023/02/25 13:31:15;;;;;;;;;;;6.90;99.90;;;;;;4991433;28;19926;-75
2023/02/25 13:33:41;;;;;;;;;;;6.30;99.90;;;;;;4993286;28;19918;-78
2023/02/25 13:36:10;;;;;;;;;;;5.90;99.90;;;;;;4991739;28;19969;-74
2023/02/25 13:38:42;;;;;;;;;;;5.60;99.90;;;;;;4992512;28;19917;-73
2023/02/25 13:41:43;;;;;;;;;;;5.50;99.90;;;;;;4979221;28;19913;-74
2023/02/25 13:44:28;;;;;;;;;;;5.60;99.90;;;;;;4891898;29;19934;-77
2023/02/25 13:47:03;;;;;;;;;;;5.70;99.90;;;;;;4986450;28;19913;-75
2023/02/25 13:49:49;;;;;;;;;;;5.80;99.90;;;;;;4995332;28;19925;-74
2023/02/25 13:52:27;;;;;;;;;;;5.80;99.90;;;;;;4989522;28;19921;-75
2023/02/25 13:55:12;;;;;;;;;;;6.10;99.90;;;;;;4993468;28;19918;-77
2023/02/25 13:57:44;;;;;;;;;;;6.20;99.90;;;;;;4991855;28;19936;-76
2023/02/25 14:00:34;;;;;;;;;;;6.20;99.90;;;;;;4992048;28;19922;-74
2023/02/25 14:03:30;;;;;;;;;;;6.10;99.90;;;;;;4996330;28;19922;-74
2023/02/25 14:06:34;;;;;;;;;;;6.00;99.90;;;;;;4992264;28;19921;-76
2023/02/25 14:09:18;;;;;;;;;;;6.00;99.90;;;;;;4948063;29;20335;-74
2023/02/25 14:11:47;;;;;;;;;;;6.10;99.90;;;;;;4984010;28;19933;-74
2023/02/25 14:14:23;;;;;;;;;;;6.10;99.90;;;;;;4995574;28;19921;-74
2023/02/25 14:17:08;;;;;;;;;;;6.10;99.90;;;;;;4985554;28;19918;-77
2023/02/25 14:19:53;;;;;;;;;;;6.10;99.90;;;;;;4996146;28;19921;-76
2023/02/25 14:22:21;;;;;;;;;;;6.20;99.90;;;;;;4984736;28;19924;-75
2023/02/25 14:24:53;;;;;;;;;;;6.10;99.90;;;;;;4992704;28;19917;-74
2023/02/25 14:27:38;;;;;;;;;;;6.20;99.90;;;;;;4976782;28;19918;-73
2023/02/25 14:30:10;;;;;;;;;;;6.10;99.90;;;;;;4995476;28;19921;-74
2023/02/25 14:32:50;;;;;;;;;;;5.90;99.90;;;;;;4992607;28;19933;-77
2023/02/25 14:35:25;;;;;;;;;;;5.90;99.90;;;;;;4991852;28;20286;-76
2023/02/25 14:38:05;;;;;;;;;;;5.80;99.90;;;;;;4991344;28;19921;-74
2023/02/25 14:40:40;;;;;;;;;;;5.90;99.90;;;;;;4992823;28;19920;-74
2023/02/25 14:43:24;;;;;;;;;;;6.10;99.90;;;;;;4996086;28;19914;-74
2023/02/25 14:45:52;;;;;;;;;;;6.40;99.90;;;;;;4991533;28;19913;-76
2023/02/25 14:48:29;;;;;;;;;;;6.60;99.90;;;;;;4981937;28;19917;-76
2023/02/25 14:51:13;;;;;;;;;;;6.80;99.90;;;;;;4996055;28;19922;-75